Berrien Springs, MI

2:05 AM EDT on May 27, 2017 (GMT -0400)
Lake Union Conference | | Change Station

Elev 741 ft 41.97 °N, 86.38 °W | Updated 29 seconds ago

Overcast
Overcast
56.8 °F
Feels Like 56.8 °F
N
0.0
Wind Variable Wind from ENE
Gusts 0.0 mph

Today
High -- | Low -- °F
--% Chance of Precip.
Yesterday
High -- | Low -- °F
Precip. -- in
Pressure 29.85 in
Visibility 9.0 miles
Clouds Mostly Cloudy 3000 ft
Mostly Cloudy 3400 ft
Overcast 4200 ft
Dew Point 57 °F
Humidity 99%
Rainfall 0.02 in
Snow Depth Not available.
6:15 AM 9:10 PM
Waxing Crescent, 3% visible
METAR KBEH 270553Z AUTO 00000KT 9SM BKN030 BKN034 OVC042 15/13 A2986 RMK AO2 RAE06B38E51 SLP108 P0001 60041 T01500133 10156 20139 55002
Pressure 29.85 in
Visibility 9.0 miles
Clouds Mostly Cloudy 3000 ft
Mostly Cloudy 3400 ft
Overcast 4200 ft
Dew Point 57 °F
Humidity 99%
Rainfall 0.02 in
Snow Depth Not available.
6:15 AM 9:10 PM
Waxing Crescent, 3% visible
METAR KBEH 270553Z AUTO 00000KT 9SM BKN030 BKN034 OVC042 15/13 A2986 RMK AO2 RAE06B38E51 SLP108 P0001 60041 T01500133 10156 20139 55002

Get Severe Weather Alerts

Thanks for signing up!

Be on the lookout for a verification email in your inbox.

You'll start receiving the daily forecast at 6 AM.

×

10-Day Weather Forecast

Almanac

Astronomy

May. 27, 2017 Rise Set
Actual Time
Civil Twilight
Nautical Twilight
Astronomical Twilight
Moon
Length of Visible Light
Length of Day
Tomorrow will be .
, % of the Moon is Illuminated

Today's Extremes

State Highs State Lows

Community

WunderPhotos

Category 6

Welcome to Category 6. This is the collective home for Weather Underground's featured writeups by Dr. Jeff Masters (right), Bob Henson (left), Chris Burt, and other regular contributors.

Nearby

Air Quality

  Air Quality AQ Index Pollutant
Not available.

Snow Depth

Station Depth Elevation

Earthquake Activity

City Distance Mag. Time & Date
Minimum magnitude displayed is 2.5.

Coastal Water Temperatures

Place Temperature

Stations

Nearby Weather Stations

Station Location Temp. Windchill Dew Point Humidity Wind Precip. Elev Updated Type
                   

Watches & Warnings

There are currently no watches in effect.